sensor_id;sensor_type;location;lat;lon;timestamp;pressure;altitude;pressure_sealevel;temperature;humidity
51603;BME280;37954;51.980;5.850;2022-11-11T00:02:40;102479.81;;;9.63;85.71
51603;BME280;37954;51.980;5.850;2022-11-11T00:07:10;102474.47;;;9.63;86.36
51603;BME280;37954;51.980;5.850;2022-11-11T00:11:40;102473.09;;;9.67;86.36
51603;BME280;37954;51.980;5.850;2022-11-11T00:16:13;102491.34;;;9.71;86.33
51603;BME280;37954;51.980;5.850;2022-11-11T00:20:44;102498.19;;;9.82;86.96
51603;BME280;37954;51.980;5.850;2022-11-11T00:25:33;102490.09;;;9.90;86.79
51603;BME280;37954;51.980;5.850;2022-11-11T00:30:04;102497.38;;;10.04;86.92
51603;BME280;37954;51.980;5.850;2022-11-11T00:34:34;102490.47;;;10.10;87.01
51603;BME280;37954;51.980;5.850;2022-11-11T00:39:04;102513.47;;;10.21;87.00
51603;BME280;37954;51.980;5.850;2022-11-11T00:43:34;102502.47;;;10.30;87.17
51603;BME280;37954;51.980;5.850;2022-11-11T00:48:04;102490.19;;;10.36;86.81
51603;BME280;37954;51.980;5.850;2022-11-11T00:52:53;102494.00;;;10.41;86.57
51603;BME280;37954;51.980;5.850;2022-11-11T00:57:23;102505.53;;;10.50;86.52
51603;BME280;37954;51.980;5.850;2022-11-11T01:01:53;102501.47;;;10.54;86.36
51603;BME280;37954;51.980;5.850;2022-11-11T01:06:24;102510.00;;;10.58;86.19
51603;BME280;37954;51.980;5.850;2022-11-11T01:10:55;102510.31;;;10.63;86.12
51603;BME280;37954;51.980;5.850;2022-11-11T01:15:25;102500.03;;;10.66;86.14
51603;BME280;37954;51.980;5.850;2022-11-11T01:19:55;102475.19;;;10.64;85.78
51603;BME280;37954;51.980;5.850;2022-11-11T01:24:24;102482.88;;;10.67;86.00
51603;BME280;37954;51.980;5.850;2022-11-11T01:28:55;102483.38;;;10.71;85.69
51603;BME280;37954;51.980;5.850;2022-11-11T01:33:26;102488.75;;;10.71;85.56
51603;BME280;37954;51.980;5.850;2022-11-11T01:37:56;102504.69;;;10.72;85.83
51603;BME280;37954;51.980;5.850;2022-11-11T01:42:27;102484.66;;;10.75;85.44
51603;BME280;37954;51.980;5.850;2022-11-11T01:46:59;102482.63;;;10.77;85.43
51603;BME280;37954;51.980;5.850;2022-11-11T01:52:11;102485.13;;;10.78;85.88
51603;BME280;37954;51.980;5.850;2022-11-11T01:56:43;102483.63;;;10.76;86.00
51603;BME280;37954;51.980;5.850;2022-11-11T02:01:16;102482.44;;;10.78;85.98
51603;BME280;37954;51.980;5.850;2022-11-11T02:05:46;102485.63;;;10.82;85.75
51603;BME280;37954;51.980;5.850;2022-11-11T02:10:20;102491.47;;;10.86;85.85
51603;BME280;37954;51.980;5.850;2022-11-11T02:14:54;102483.69;;;10.91;85.71
51603;BME280;37954;51.980;5.850;2022-11-11T02:19:50;102480.19;;;10.90;85.78
51603;BME280;37954;51.980;5.850;2022-11-11T02:24:23;102473.56;;;10.93;85.56
51603;BME280;37954;51.980;5.850;2022-11-11T02:28:55;102478.78;;;10.94;85.66
51603;BME280;37954;51.980;5.850;2022-11-11T02:33:26;102485.63;;;10.97;85.82
51603;BME280;37954;51.980;5.850;2022-11-11T02:37:57;102476.91;;;10.95;86.00
51603;BME280;37954;51.980;5.850;2022-11-11T02:42:27;102482.13;;;10.96;85.75
51603;BME280;37954;51.980;5.850;2022-11-11T02:46:57;102492.50;;;10.99;86.26
51603;BME280;37954;51.980;5.850;2022-11-11T02:51:27;102487.78;;;11.01;86.14
51603;BME280;37954;51.980;5.850;2022-11-11T02:55:57;102485.94;;;11.02;86.11
51603;BME280;37954;51.980;5.850;2022-11-11T03:00:27;102491.31;;;11.02;86.29
51603;BME280;37954;51.980;5.850;2022-11-11T03:04:57;102483.91;;;11.04;86.18
51603;BME280;37954;51.980;5.850;2022-11-11T03:09:27;102484.75;;;11.04;85.96
51603;BME280;37954;51.980;5.850;2022-11-11T03:13:58;102472.78;;;11.07;86.03
51603;BME280;37954;51.980;5.850;2022-11-11T03:18:28;102485.84;;;11.10;86.31
51603;BME280;37954;51.980;5.850;2022-11-11T03:23:03;102478.16;;;11.07;86.01
51603;BME280;37954;51.980;5.850;2022-11-11T03:27:33;102490.78;;;11.06;85.99
51603;BME280;37954;51.980;5.850;2022-11-11T03:32:05;102498.44;;;11.09;85.95
51603;BME280;37954;51.980;5.850;2022-11-11T03:36:35;102496.78;;;11.08;85.87
51603;BME280;37954;51.980;5.850;2022-11-11T03:41:25;102492.22;;;11.09;85.74
51603;BME280;37954;51.980;5.850;2022-11-11T03:45:57;102495.75;;;11.09;85.88
51603;BME280;37954;51.980;5.850;2022-11-11T03:50:27;102497.81;;;11.07;86.01
51603;BME280;37954;51.980;5.850;2022-11-11T03:54:57;102505.69;;;11.09;86.05
51603;BME280;37954;51.980;5.850;2022-11-11T03:59:27;102507.94;;;11.05;86.04
51603;BME280;37954;51.980;5.850;2022-11-11T04:03:57;102506.06;;;11.06;86.06
51603;BME280;37954;51.980;5.850;2022-11-11T04:08:46;102505.41;;;11.04;85.81
51603;BME280;37954;51.980;5.850;2022-11-11T04:13:35;102501.41;;;11.00;86.03
51603;BME280;37954;51.980;5.850;2022-11-11T04:18:23;102505.78;;;11.01;85.91
51603;BME280;37954;51.980;5.850;2022-11-11T04:23:13;102518.88;;;11.04;85.97
51603;BME280;37954;51.980;5.850;2022-11-11T04:27:43;102519.88;;;11.03;85.83
51603;BME280;37954;51.980;5.850;2022-11-11T04:32:16;102519.03;;;11.02;86.11
51603;BME280;37954;51.980;5.850;2022-11-11T04:37:07;102514.84;;;11.00;85.97
51603;BME280;37954;51.980;5.850;2022-11-11T04:41:37;102515.34;;;11.03;85.82
51603;BME280;37954;51.980;5.850;2022-11-11T04:46:27;102512.81;;;11.02;85.64
51603;BME280;37954;51.980;5.850;2022-11-11T04:50:58;102506.44;;;11.03;85.93
51603;BME280;37954;51.980;5.850;2022-11-11T04:55:28;102512.66;;;11.03;85.38
51603;BME280;37954;51.980;5.850;2022-11-11T05:00:18;102497.88;;;10.99;85.73
51603;BME280;37954;51.980;5.850;2022-11-11T05:04:48;102504.09;;;11.00;85.39
51603;BME280;37954;51.980;5.850;2022-11-11T05:09:19;102504.47;;;10.97;85.57
51603;BME280;37954;51.980;5.850;2022-11-11T05:13:50;102496.75;;;10.94;85.43
51603;BME280;37954;51.980;5.850;2022-11-11T05:18:39;102498.78;;;10.92;85.32
51603;BME280;37954;51.980;5.850;2022-11-11T05:23:27;102493.41;;;10.92;85.74
51603;BME280;37954;51.980;5.850;2022-11-11T05:28:18;102488.88;;;10.92;85.50
51603;BME280;37954;51.980;5.850;2022-11-11T05:32:48;102491.75;;;10.91;85.59
51603;BME280;37954;51.980;5.850;2022-11-11T05:37:18;102498.78;;;10.92;85.27
51603;BME280;37954;51.980;5.850;2022-11-11T05:41:49;102497.94;;;10.91;85.19
51603;BME280;37954;51.980;5.850;2022-11-11T05:46:19;102502.88;;;10.88;85.34
51603;BME280;37954;51.980;5.850;2022-11-11T05:50:49;102496.19;;;10.84;85.56
51603;BME280;37954;51.980;5.850;2022-11-11T05:55:19;102490.63;;;10.85;85.55
51603;BME280;37954;51.980;5.850;2022-11-11T05:59:49;102498.22;;;10.81;85.36
51603;BME280;37954;51.980;5.850;2022-11-11T06:04:20;102500.91;;;10.81;85.41
51603;BME280;37954;51.980;5.850;2022-11-11T06:08:50;102501.22;;;10.87;85.26
51603;BME280;37954;51.980;5.850;2022-11-11T06:13:20;102507.47;;;10.79;85.30
51603;BME280;37954;51.980;5.850;2022-11-11T06:17:50;102500.16;;;10.73;85.53
51603;BME280;37954;51.980;5.850;2022-11-11T06:22:21;102507.00;;;10.75;85.47
51603;BME280;37954;51.980;5.850;2022-11-11T06:27:10;102525.19;;;10.73;85.60
51603;BME280;37954;51.980;5.850;2022-11-11T06:31:41;102537.13;;;10.71;85.46
51603;BME280;37954;51.980;5.850;2022-11-11T06:36:13;102538.69;;;10.65;85.73
51603;BME280;37954;51.980;5.850;2022-11-11T06:40:44;102549.56;;;10.72;85.65
51603;BME280;37954;51.980;5.850;2022-11-11T06:45:14;102547.22;;;10.69;85.36
51603;BME280;37954;51.980;5.850;2022-11-11T06:49:44;102554.97;;;10.64;85.19
51603;BME280;37954;51.980;5.850;2022-11-11T06:54:14;102553.81;;;10.58;85.73
51603;BME280;37954;51.980;5.850;2022-11-11T06:58:44;102561.72;;;10.60;85.24
51603;BME280;37954;51.980;5.850;2022-11-11T07:03:17;102557.53;;;10.57;85.29
51603;BME280;37954;51.980;5.850;2022-11-11T07:07:54;102551.03;;;10.52;85.29
51603;BME280;37954;51.980;5.850;2022-11-11T07:12:25;102564.31;;;10.53;85.28
51603;BME280;37954;51.980;5.850;2022-11-11T07:16:55;102567.81;;;10.54;85.05
51603;BME280;37954;51.980;5.850;2022-11-11T07:21:30;102592.44;;;10.65;85.06
51603;BME280;37954;51.980;5.850;2022-11-11T07:26:01;102593.69;;;10.55;84.62
51603;BME280;37954;51.980;5.850;2022-11-11T07:30:31;102597.84;;;10.57;84.33
51603;BME280;37954;51.980;5.850;2022-11-11T07:35:02;102607.56;;;10.58;84.19
51603;BME280;37954;51.980;5.850;2022-11-11T07:39:33;102601.59;;;10.48;84.08
51603;BME280;37954;51.980;5.850;2022-11-11T07:44:03;102611.19;;;10.42;83.71
51603;BME280;37954;51.980;5.850;2022-11-11T07:48:33;102616.47;;;10.36;83.28
51603;BME280;37954;51.980;5.850;2022-11-11T07:53:04;102621.34;;;10.32;83.41
51603;BME280;37954;51.980;5.850;2022-11-11T07:57:35;102638.47;;;10.31;83.39
51603;BME280;37954;51.980;5.850;2022-11-11T08:02:08;102648.75;;;10.20;83.09
51603;BME280;37954;51.980;5.850;2022-11-11T08:06:39;102648.06;;;10.18;83.13
51603;BME280;37954;51.980;5.850;2022-11-11T08:11:09;102643.38;;;10.11;83.08
51603;BME280;37954;51.980;5.850;2022-11-11T08:15:40;102648.91;;;10.10;83.26
51603;BME280;37954;51.980;5.850;2022-11-11T08:20:11;102646.22;;;10.10;83.11
51603;BME280;37954;51.980;5.850;2022-11-11T08:24:41;102642.72;;;10.09;83.17
51603;BME280;37954;51.980;5.850;2022-11-11T08:29:31;102665.19;;;10.25;83.12
51603;BME280;37954;51.980;5.850;2022-11-11T08:34:01;102647.22;;;10.25;83.14
51603;BME280;37954;51.980;5.850;2022-11-11T08:38:32;102648.69;;;10.36;82.72
51603;BME280;37954;51.980;5.850;2022-11-11T08:43:02;102646.75;;;10.53;82.70
51603;BME280;37954;51.980;5.850;2022-11-11T08:47:33;102652.09;;;10.61;81.80
51603;BME280;37954;51.980;5.850;2022-11-11T08:52:03;102661.44;;;10.73;80.92
51603;BME280;37954;51.980;5.850;2022-11-11T08:56:34;102651.41;;;10.90;80.48
51603;BME280;37954;51.980;5.850;2022-11-11T09:01:09;102651.53;;;11.19;79.96
51603;BME280;37954;51.980;5.850;2022-11-11T09:05:40;102655.78;;;11.51;79.34
51603;BME280;37954;51.980;5.850;2022-11-11T09:10:11;102669.50;;;11.79;77.80
51603;BME280;37954;51.980;5.850;2022-11-11T09:14:41;102664.81;;;12.10;77.29
51603;BME280;37954;51.980;5.850;2022-11-11T09:19:11;102673.53;;;12.42;75.98
51603;BME280;37954;51.980;5.850;2022-11-11T09:23:41;102666.03;;;12.73;75.50
51603;BME280;37954;51.980;5.850;2022-11-11T09:28:11;102665.09;;;13.02;73.79
51603;BME280;37954;51.980;5.850;2022-11-11T09:32:42;102667.69;;;13.32;72.44
51603;BME280;37954;51.980;5.850;2022-11-11T09:37:12;102667.25;;;13.56;71.96
51603;BME280;37954;51.980;5.850;2022-11-11T09:51:51;102671.66;;;14.19;68.41
51603;BME280;37954;51.980;5.850;2022-11-11T09:56:25;102689.31;;;14.50;68.26
51603;BME280;37954;51.980;5.850;2022-11-11T10:01:17;102674.59;;;14.66;67.87
51603;BME280;37954;51.980;5.850;2022-11-11T10:06:02;102681.50;;;14.81;66.80
51603;BME280;37954;51.980;5.850;2022-11-11T10:10:43;102688.38;;;14.84;66.42
51603;BME280;37954;51.980;5.850;2022-11-11T10:15:14;102696.91;;;14.81;66.08
51603;BME280;37954;51.980;5.850;2022-11-11T10:20:10;102695.09;;;15.01;65.84
51603;BME280;37954;51.980;5.850;2022-11-11T10:24:48;102685.31;;;15.00;65.47
51603;BME280;37954;51.980;5.850;2022-11-11T10:29:24;102708.44;;;15.09;65.01
51603;BME280;37954;51.980;5.850;2022-11-11T10:34:02;102688.47;;;15.17;64.83
51603;BME280;37954;51.980;5.850;2022-11-11T10:38:40;102682.66;;;15.33;64.85
51603;BME280;37954;51.980;5.850;2022-11-11T10:43:25;102685.75;;;15.43;64.86
51603;BME280;37954;51.980;5.850;2022-11-11T10:48:02;102697.69;;;15.55;64.21
51603;BME280;37954;51.980;5.850;2022-11-11T10:52:59;102691.63;;;15.60;63.69
51603;BME280;37954;51.980;5.850;2022-11-11T11:02:28;102685.00;;;15.56;64.06
51603;BME280;37954;51.980;5.850;2022-11-11T11:07:03;102687.47;;;15.64;63.91
51603;BME280;37954;51.980;5.850;2022-11-11T11:11:38;102695.81;;;15.89;64.01
51603;BME280;37954;51.980;5.850;2022-11-11T11:16:21;102688.22;;;16.11;63.26
51603;BME280;37954;51.980;5.850;2022-11-11T11:21:02;102692.41;;;16.20;62.86
51603;BME280;37954;51.980;5.850;2022-11-11T11:25:33;102694.03;;;16.34;62.53
51603;BME280;37954;51.980;5.850;2022-11-11T11:30:19;102691.09;;;16.42;62.41
51603;BME280;37954;51.980;5.850;2022-11-11T11:34:54;102706.47;;;16.61;62.40
51603;BME280;37954;51.980;5.850;2022-11-11T11:39:33;102689.97;;;16.56;61.25
51603;BME280;37954;51.980;5.850;2022-11-11T11:44:24;102679.34;;;16.48;61.31
51603;BME280;37954;51.980;5.850;2022-11-11T11:49:14;102683.47;;;16.06;61.04
51603;BME280;37954;51.980;5.850;2022-11-11T12:04:03;102681.81;;;15.46;61.91
51603;BME280;37954;51.980;5.850;2022-11-11T12:09:20;102684.72;;;15.24;62.51
51603;BME280;37954;51.980;5.850;2022-11-11T12:19:10;102670.09;;;14.86;63.52
51603;BME280;37954;51.980;5.850;2022-11-11T12:24:05;102668.97;;;14.74;63.92
51603;BME280;37954;51.980;5.850;2022-11-11T12:33:50;102677.06;;;14.60;64.46
51603;BME280;37954;51.980;5.850;2022-11-11T12:38:56;102673.72;;;14.52;64.76
51603;BME280;37954;51.980;5.850;2022-11-11T12:53:45;102644.63;;;14.19;65.22
51603;BME280;37954;51.980;5.850;2022-11-11T13:13:16;102649.19;;;14.19;66.14
51603;BME280;37954;51.980;5.850;2022-11-11T13:17:51;102642.13;;;14.18;66.46
51603;BME280;37954;51.980;5.850;2022-11-11T13:22:27;102631.66;;;14.08;66.53
51603;BME280;37954;51.980;5.850;2022-11-11T13:27:04;102651.81;;;14.06;66.62
51603;BME280;37954;51.980;5.850;2022-11-11T13:31:39;102644.72;;;13.98;66.99
51603;BME280;37954;51.980;5.850;2022-11-11T13:36:16;102644.28;;;13.94;67.49
51603;BME280;37954;51.980;5.850;2022-11-11T13:40:50;102651.53;;;13.94;67.71
51603;BME280;37954;51.980;5.850;2022-11-11T13:45:27;102639.66;;;13.88;67.70
51603;BME280;37954;51.980;5.850;2022-11-11T13:54:36;102634.94;;;13.97;67.99
51603;BME280;37954;51.980;5.850;2022-11-11T13:59:25;102618.88;;;13.89;67.92
51603;BME280;37954;51.980;5.850;2022-11-11T14:03:59;102630.31;;;13.91;67.87
51603;BME280;37954;51.980;5.850;2022-11-11T14:17:53;102636.09;;;13.81;67.92
51603;BME280;37954;51.980;5.850;2022-11-11T14:22:32;102635.00;;;13.76;68.13
51603;BME280;37954;51.980;5.850;2022-11-11T14:27:14;102640.16;;;13.71;68.14
51603;BME280;37954;51.980;5.850;2022-11-11T14:31:54;102638.47;;;13.63;68.16
51603;BME280;37954;51.980;5.850;2022-11-11T14:41:46;102627.13;;;13.46;68.52
51603;BME280;37954;51.980;5.850;2022-11-11T14:46:19;102625.19;;;13.40;68.57
51603;BME280;37954;51.980;5.850;2022-11-11T14:50:49;102625.75;;;13.36;68.73
51603;BME280;37954;51.980;5.850;2022-11-11T14:55:24;102640.06;;;13.30;68.77
51603;BME280;37954;51.980;5.850;2022-11-11T14:59:58;102632.72;;;13.23;69.10
51603;BME280;37954;51.980;5.850;2022-11-11T15:04:36;102632.03;;;13.15;69.20
51603;BME280;37954;51.980;5.850;2022-11-11T15:19:01;102652.50;;;12.88;70.00
51603;BME280;37954;51.980;5.850;2022-11-11T15:38:20;102654.84;;;12.40;70.81
51603;BME280;37954;51.980;5.850;2022-11-11T15:42:50;102655.53;;;12.28;70.84
51603;BME280;37954;51.980;5.850;2022-11-11T15:47:22;102661.72;;;12.13;71.28
51603;BME280;37954;51.980;5.850;2022-11-11T15:51:57;102671.84;;;11.97;71.73
51603;BME280;37954;51.980;5.850;2022-11-11T15:56:32;102668.97;;;11.83;71.77
51603;BME280;37954;51.980;5.850;2022-11-11T16:01:04;102658.22;;;11.61;72.26
51603;BME280;37954;51.980;5.850;2022-11-11T16:05:35;102655.69;;;11.44;72.65
51603;BME280;37954;51.980;5.850;2022-11-11T16:10:24;102667.53;;;11.35;72.90
51603;BME280;37954;51.980;5.850;2022-11-11T16:14:56;102659.97;;;11.16;72.90
51603;BME280;37954;51.980;5.850;2022-11-11T16:19:37;102666.44;;;11.07;73.74
51603;BME280;37954;51.980;5.850;2022-11-11T16:24:27;102683.28;;;11.01;73.91
51603;BME280;37954;51.980;5.850;2022-11-11T16:28:59;102697.59;;;10.93;74.18
51603;BME280;37954;51.980;5.850;2022-11-11T16:33:33;102697.66;;;10.85;74.54
51603;BME280;37954;51.980;5.850;2022-11-11T16:38:04;102689.69;;;10.69;74.80
51603;BME280;37954;51.980;5.850;2022-11-11T16:42:34;102694.41;;;10.59;74.82
51603;BME280;37954;51.980;5.850;2022-11-11T16:47:06;102691.78;;;10.51;75.37
51603;BME280;37954;51.980;5.850;2022-11-11T16:51:58;102716.13;;;10.49;75.64
51603;BME280;37954;51.980;5.850;2022-11-11T16:56:41;102697.22;;;10.34;75.80
51603;BME280;37954;51.980;5.850;2022-11-11T17:01:12;102688.34;;;10.26;76.00
51603;BME280;37954;51.980;5.850;2022-11-11T17:06:00;102703.28;;;10.28;76.43
51603;BME280;37954;51.980;5.850;2022-11-11T17:10:38;102693.91;;;10.16;76.28
51603;BME280;37954;51.980;5.850;2022-11-11T17:15:16;102704.13;;;10.12;76.56
51603;BME280;37954;51.980;5.850;2022-11-11T17:19:47;102684.03;;;9.92;76.72
51603;BME280;37954;51.980;5.850;2022-11-11T17:24:17;102679.38;;;9.86;76.77
51603;BME280;37954;51.980;5.850;2022-11-11T17:28:47;102701.84;;;9.85;76.92
51603;BME280;37954;51.980;5.850;2022-11-11T17:33:18;102704.88;;;9.74;77.29
51603;BME280;37954;51.980;5.850;2022-11-11T17:37:48;102682.06;;;9.70;77.92
51603;BME280;37954;51.980;5.850;2022-11-11T17:42:19;102694.47;;;9.71;77.82
51603;BME280;37954;51.980;5.850;2022-11-11T17:46:50;102691.13;;;9.61;77.98
51603;BME280;37954;51.980;5.850;2022-11-11T17:51:21;102697.84;;;9.57;77.95
51603;BME280;37954;51.980;5.850;2022-11-11T17:55:51;102695.34;;;9.47;77.75
51603;BME280;37954;51.980;5.850;2022-11-11T18:00:22;102695.47;;;9.37;78.07
51603;BME280;37954;51.980;5.850;2022-11-11T18:04:52;102705.91;;;9.32;78.22
51603;BME280;37954;51.980;5.850;2022-11-11T18:09:27;102691.78;;;9.22;78.37
51603;BME280;37954;51.980;5.850;2022-11-11T18:13:57;102692.78;;;9.21;78.31
51603;BME280;37954;51.980;5.850;2022-11-11T18:18:29;102685.41;;;9.07;78.27
51603;BME280;37954;51.980;5.850;2022-11-11T18:22:59;102694.44;;;9.06;78.65
51603;BME280;37954;51.980;5.850;2022-11-11T18:27:29;102698.31;;;9.03;78.78
51603;BME280;37954;51.980;5.850;2022-11-11T18:31:59;102689.25;;;8.96;78.67
51603;BME280;37954;51.980;5.850;2022-11-11T18:36:30;102701.50;;;8.99;79.21
51603;BME280;37954;51.980;5.850;2022-11-11T18:41:12;102685.72;;;8.88;79.33
51603;BME280;37954;51.980;5.850;2022-11-11T18:45:43;102678.16;;;8.83;79.27
51603;BME280;37954;51.980;5.850;2022-11-11T18:50:13;102679.66;;;8.78;79.53
51603;BME280;37954;51.980;5.850;2022-11-11T18:54:43;102683.81;;;8.72;79.91
51603;BME280;37954;51.980;5.850;2022-11-11T18:59:14;102679.31;;;8.64;79.74
51603;BME280;37954;51.980;5.850;2022-11-11T19:03:44;102678.09;;;8.59;80.04
51603;BME280;37954;51.980;5.850;2022-11-11T19:08:14;102672.91;;;8.57;79.98
51603;BME280;37954;51.980;5.850;2022-11-11T19:12:46;102683.09;;;8.54;80.08
51603;BME280;37954;51.980;5.850;2022-11-11T19:17:17;102702.53;;;8.56;80.27
51603;BME280;37954;51.980;5.850;2022-11-11T19:21:53;102690.44;;;8.44;80.40
51603;BME280;37954;51.980;5.850;2022-11-11T19:26:26;102701.47;;;8.49;80.57
51603;BME280;37954;51.980;5.850;2022-11-11T19:31:16;102689.38;;;8.36;80.77
51603;BME280;37954;51.980;5.850;2022-11-11T19:35:57;102708.97;;;8.37;80.61
51603;BME280;37954;51.980;5.850;2022-11-11T19:40:27;102695.16;;;8.24;80.70
51603;BME280;37954;51.980;5.850;2022-11-11T19:44:58;102704.03;;;8.24;80.42
51603;BME280;37954;51.980;5.850;2022-11-11T19:49:29;102706.03;;;8.22;80.70
51603;BME280;37954;51.980;5.850;2022-11-11T19:53:59;102700.47;;;8.16;81.23
51603;BME280;37954;51.980;5.850;2022-11-11T19:58:30;102728.44;;;8.21;81.04
51603;BME280;37954;51.980;5.850;2022-11-11T20:03:01;102710.97;;;8.09;81.31
51603;BME280;37954;51.980;5.850;2022-11-11T20:07:32;102732.94;;;8.13;81.07
51603;BME280;37954;51.980;5.850;2022-11-11T20:12:02;102732.94;;;8.13;81.37
51603;BME280;37954;51.980;5.850;2022-11-11T20:16:33;102737.59;;;8.11;81.52
51603;BME280;37954;51.980;5.850;2022-11-11T20:21:07;102757.66;;;8.15;81.96
51603;BME280;37954;51.980;5.850;2022-11-11T20:25:37;102748.91;;;8.04;82.27
51603;BME280;37954;51.980;5.850;2022-11-11T20:30:08;102750.13;;;8.10;82.18
51603;BME280;37954;51.980;5.850;2022-11-11T20:34:38;102753.81;;;8.09;82.51
51603;BME280;37954;51.980;5.850;2022-11-11T20:39:08;102767.50;;;8.06;82.44
51603;BME280;37954;51.980;5.850;2022-11-11T20:43:39;102772.25;;;8.12;82.70
51603;BME280;37954;51.980;5.850;2022-11-11T20:48:10;102773.22;;;8.11;82.92
51603;BME280;37954;51.980;5.850;2022-11-11T20:52:42;102783.94;;;8.11;83.17
51603;BME280;37954;51.980;5.850;2022-11-11T20:57:13;102766.97;;;8.02;83.69
51603;BME280;37954;51.980;5.850;2022-11-11T21:01:45;102765.59;;;7.98;83.40
51603;BME280;37954;51.980;5.850;2022-11-11T21:06:17;102778.97;;;7.98;83.20
51603;BME280;37954;51.980;5.850;2022-11-11T21:10:47;102790.06;;;8.03;83.19
51603;BME280;37954;51.980;5.850;2022-11-11T21:15:17;102777.94;;;7.91;82.94
51603;BME280;37954;51.980;5.850;2022-11-11T21:19:48;102769.13;;;7.81;83.24
51603;BME280;37954;51.980;5.850;2022-11-11T21:24:18;102777.00;;;7.83;83.18
51603;BME280;37954;51.980;5.850;2022-11-11T21:28:48;102782.66;;;7.80;83.11
51603;BME280;37954;51.980;5.850;2022-11-11T21:33:19;102764.88;;;7.71;83.16
51603;BME280;37954;51.980;5.850;2022-11-11T21:37:51;102775.59;;;7.71;83.07
51603;BME280;37954;51.980;5.850;2022-11-11T21:42:23;102775.34;;;7.64;83.28
51603;BME280;37954;51.980;5.850;2022-11-11T21:46:55;102776.97;;;7.57;83.27
51603;BME280;37954;51.980;5.850;2022-11-11T21:51:27;102773.91;;;7.52;83.67
51603;BME280;37954;51.980;5.850;2022-11-11T21:56:03;102788.38;;;7.59;83.27
51603;BME280;37954;51.980;5.850;2022-11-11T22:00:34;102762.13;;;7.45;83.26
51603;BME280;37954;51.980;5.850;2022-11-11T22:05:05;102772.00;;;7.44;83.73
51603;BME280;37954;51.980;5.850;2022-11-11T22:09:36;102770.47;;;7.42;83.75
51603;BME280;37954;51.980;5.850;2022-11-11T22:14:07;102759.25;;;7.38;83.96
51603;BME280;37954;51.980;5.850;2022-11-11T22:18:38;102760.69;;;7.32;84.16
51603;BME280;37954;51.980;5.850;2022-11-11T22:23:13;102762.97;;;7.27;84.06
51603;BME280;37954;51.980;5.850;2022-11-11T22:27:43;102785.72;;;7.31;83.92
51603;BME280;37954;51.980;5.850;2022-11-11T22:32:14;102788.72;;;7.28;83.86
51603;BME280;37954;51.980;5.850;2022-11-11T22:36:44;102788.34;;;7.23;84.09
51603;BME280;37954;51.980;5.850;2022-11-11T22:41:17;102785.13;;;7.20;84.47
51603;BME280;37954;51.980;5.850;2022-11-11T22:45:57;102804.38;;;7.23;84.38
51603;BME280;37954;51.980;5.850;2022-11-11T22:50:27;102806.50;;;7.20;84.43
51603;BME280;37954;51.980;5.850;2022-11-11T22:54:58;102786.91;;;7.02;84.14
51603;BME280;37954;51.980;5.850;2022-11-11T22:59:28;102789.75;;;7.00;83.79
51603;BME280;37954;51.980;5.850;2022-11-11T23:04:00;102792.56;;;6.98;84.10
51603;BME280;37954;51.980;5.850;2022-11-11T23:08:31;102807.31;;;7.03;84.06
51603;BME280;37954;51.980;5.850;2022-11-11T23:13:01;102794.25;;;6.99;84.13
51603;BME280;37954;51.980;5.850;2022-11-11T23:17:32;102796.13;;;6.89;83.96
51603;BME280;37954;51.980;5.850;2022-11-11T23:22:02;102805.97;;;6.89;84.11
51603;BME280;37954;51.980;5.850;2022-11-11T23:26:32;102801.91;;;6.85;84.18
51603;BME280;37954;51.980;5.850;2022-11-11T23:31:05;102813.28;;;6.87;84.29
51603;BME280;37954;51.980;5.850;2022-11-11T23:35:36;102826.38;;;6.90;84.33
51603;BME280;37954;51.980;5.850;2022-11-11T23:40:07;102816.41;;;6.82;84.38
51603;BME280;37954;51.980;5.850;2022-11-11T23:44:37;102823.16;;;6.77;84.32
51603;BME280;37954;51.980;5.850;2022-11-11T23:49:08;102813.66;;;6.74;84.36
51603;BME280;37954;51.980;5.850;2022-11-11T23:53:38;102821.09;;;6.71;84.47
51603;BME280;37954;51.980;5.850;2022-11-11T23:58:09;102831.34;;;6.75;84.60
